createdAt,value
2023-04-06T00:02:12.327Z,76.80
2023-04-06T00:04:59.348Z,76.90
2023-04-06T00:07:46.377Z,77.90
2023-04-06T00:10:33.628Z,77.40
2023-04-06T00:13:20.805Z,77.50
2023-04-06T00:16:08.618Z,77.60
2023-04-06T00:18:57.148Z,77.80
2023-04-06T00:21:44.097Z,78.10
2023-04-06T00:24:31.485Z,78.10
2023-04-06T00:27:18.316Z,78.30
2023-04-06T00:30:05.865Z,78.50
2023-04-06T00:32:52.725Z,78.60
2023-04-06T00:35:41.132Z,78.70
2023-04-06T00:38:28.344Z,78.70
2023-04-06T00:41:16.270Z,78.70
2023-04-06T00:44:03.313Z,78.80
2023-04-06T00:46:50.300Z,78.80
2023-04-06T00:49:37.919Z,78.90
2023-04-06T00:52:26.495Z,79.70
2023-04-06T00:55:14.596Z,79.40
2023-04-06T00:58:05.059Z,79.50
2023-04-06T01:01:00.571Z,79.60
2023-04-06T01:03:50.577Z,79.80
2023-04-06T01:06:39.385Z,79.90
2023-04-06T01:09:30.160Z,80.10
2023-04-06T01:12:18.137Z,80.10
2023-04-06T01:15:07.979Z,80.00
2023-04-06T01:17:57.837Z,80.20
2023-04-06T01:20:45.055Z,80.30
2023-04-06T01:23:35.044Z,80.40
2023-04-06T01:26:22.253Z,80.50
2023-04-06T01:29:10.943Z,80.70
2023-04-06T01:31:58.800Z,80.80
2023-04-06T01:34:46.648Z,81.10
2023-04-06T01:37:34.363Z,81.30
2023-04-06T01:40:26.105Z,81.50
2023-04-06T01:43:13.796Z,81.50
2023-04-06T01:46:17.192Z,81.60
2023-04-06T01:49:09.385Z,81.50
2023-04-06T01:51:59.796Z,81.70
2023-04-06T01:54:46.892Z,81.90
2023-04-06T01:57:38.983Z,82.00
2023-04-06T02:00:34.466Z,82.30
2023-04-06T02:03:21.940Z,82.40
2023-04-06T02:06:14.106Z,82.50
2023-04-06T02:09:02.328Z,82.70
2023-04-06T02:11:49.988Z,82.60
2023-04-06T02:14:38.541Z,82.70
2023-04-06T02:17:25.832Z,82.90
2023-04-06T02:20:13.086Z,83.00
2023-04-06T02:23:02.472Z,83.20
2023-04-06T02:25:49.446Z,83.40
2023-04-06T02:28:36.736Z,83.50
2023-04-06T02:31:25.267Z,83.40
2023-04-06T02:34:18.600Z,83.50
2023-04-06T02:37:09.971Z,83.60
2023-04-06T02:39:57.542Z,83.70
2023-04-06T02:42:45.135Z,83.80
2023-04-06T02:45:33.065Z,84.10
2023-04-06T02:48:23.346Z,84.10
2023-04-06T02:51:10.618Z,84.00
2023-04-06T02:53:58.586Z,84.10
2023-04-06T02:56:45.881Z,84.20
2023-04-06T02:59:33.926Z,84.40
2023-04-06T03:02:28.949Z,84.30
2023-04-06T03:05:26.873Z,84.30
2023-04-06T03:08:14.022Z,85.20
2023-04-06T03:11:03.880Z,84.40
2023-04-06T03:13:57.428Z,84.90
2023-04-06T03:16:44.525Z,84.60
2023-04-06T03:19:34.696Z,84.60
2023-04-06T03:22:24.713Z,84.60
2023-04-06T03:25:11.917Z,84.60
2023-04-06T03:28:02.252Z,84.80
2023-04-06T03:30:50.960Z,84.90
2023-04-06T03:33:44.727Z,85.00
2023-04-06T03:36:37.922Z,85.20
2023-04-06T03:39:27.040Z,84.70
2023-04-06T03:42:14.296Z,85.10
2023-04-06T03:45:10.559Z,85.20
2023-04-06T03:48:05.467Z,85.10
2023-04-06T03:50:55.725Z,85.20
2023-04-06T03:53:43.025Z,85.30
2023-04-06T03:56:31.773Z,85.40
2023-04-06T03:59:18.939Z,85.50
2023-04-06T04:02:06.465Z,85.60
2023-04-06T04:04:53.777Z,85.60
2023-04-06T04:07:40.790Z,85.80
2023-04-06T04:10:30.745Z,85.80
2023-04-06T04:13:19.705Z,85.80
2023-04-06T04:16:09.486Z,85.90
2023-04-06T04:18:56.448Z,86.00
2023-04-06T04:21:46.875Z,86.10
2023-04-06T04:24:38.238Z,86.70
2023-04-06T04:27:25.694Z,86.30
2023-04-06T04:30:15.050Z,86.30
2023-04-06T04:33:02.901Z,86.30
2023-04-06T04:35:50.305Z,86.30
2023-04-06T04:38:40.597Z,86.50
2023-04-06T04:41:27.643Z,86.50
2023-04-06T04:44:14.877Z,86.70
2023-04-06T04:47:04.977Z,86.80
2023-04-06T04:50:01.715Z,86.90
2023-04-06T04:52:50.624Z,86.90
2023-04-06T04:55:41.916Z,87.10
2023-04-06T04:58:30.509Z,87.70
2023-04-06T05:01:19.960Z,87.30
2023-04-06T05:04:09.275Z,87.30
2023-04-06T05:07:06.092Z,87.50
2023-04-06T05:09:53.815Z,87.60
2023-04-06T05:12:43.736Z,87.50
2023-04-06T05:15:32.255Z,87.50
2023-04-06T05:18:26.631Z,87.70
2023-04-06T05:21:16.128Z,88.00
2023-04-06T05:24:16.681Z,88.20
2023-04-06T05:27:06.365Z,88.20
2023-04-06T05:29:55.044Z,88.10
2023-04-06T05:32:46.076Z,88.10
2023-04-06T05:35:34.687Z,88.10
2023-04-06T05:38:30.868Z,88.10
2023-04-06T05:41:22.992Z,88.00
2023-04-06T05:44:10.606Z,87.90
2023-04-06T05:47:01.798Z,87.80
2023-04-06T05:49:48.934Z,87.60
2023-04-06T05:52:46.377Z,87.50
2023-04-06T05:55:38.166Z,87.50
2023-04-06T05:58:33.651Z,87.50
2023-04-06T06:01:21.194Z,87.50
2023-04-06T06:04:08.767Z,87.50
2023-04-06T06:06:59.237Z,87.50
2023-04-06T06:09:59.237Z,87.30
2023-04-06T06:12:53.957Z,87.30
2023-04-06T06:15:40.975Z,87.30
2023-04-06T06:18:28.706Z,87.10
2023-04-06T06:21:18.228Z,86.80
2023-04-06T06:24:06.444Z,86.60
2023-04-06T06:26:54.229Z,86.70
2023-04-06T06:29:47.211Z,86.40
2023-04-06T06:32:35.498Z,86.30
2023-04-06T06:35:23.244Z,86.00
2023-04-06T06:38:11.643Z,85.70
2023-04-06T06:40:59.131Z,85.40
2023-04-06T06:43:50.937Z,85.00
2023-04-06T06:46:40.742Z,84.70
2023-04-06T06:49:28.003Z,84.40
2023-04-06T06:52:17.794Z,84.00
2023-04-06T06:55:05.377Z,83.30
2023-04-06T06:57:52.693Z,82.80
2023-04-06T07:00:40.652Z,82.40
2023-04-06T07:03:31.419Z,82.10
2023-04-06T07:06:19.177Z,81.80
2023-04-06T07:09:06.677Z,81.30
2023-04-06T07:11:53.714Z,80.50
2023-04-06T07:14:41.931Z,79.40
2023-04-06T07:17:29.149Z,78.70
2023-04-06T07:20:17.863Z,77.60
2023-04-06T07:23:05.121Z,76.80
2023-04-06T07:25:54.978Z,76.00
2023-04-06T07:28:42.713Z,74.80
2023-04-06T07:31:31.888Z,74.80
2023-04-06T07:34:19.347Z,74.00
2023-04-06T07:37:08.613Z,72.90
2023-04-06T07:39:56.700Z,72.10
2023-04-06T07:42:44.324Z,71.60
2023-04-06T07:45:32.267Z,71.30
2023-04-06T07:48:20.098Z,70.10
2023-04-06T07:51:15.354Z,68.90
2023-04-06T07:54:06.243Z,67.50
2023-04-06T07:56:53.936Z,67.00
2023-04-06T07:59:41.230Z,67.30
2023-04-06T08:02:28.881Z,66.70
2023-04-06T08:05:17.123Z,65.80
2023-04-06T08:08:04.775Z,65.80
2023-04-06T08:10:53.688Z,65.10
2023-04-06T08:13:41.074Z,64.30
2023-04-06T08:16:28.973Z,62.90
2023-04-06T08:19:18.475Z,61.40
2023-04-06T08:22:06.313Z,60.10
2023-04-06T08:24:54.138Z,59.20
2023-04-06T08:27:43.036Z,58.60
2023-04-06T08:30:31.157Z,57.90
2023-04-06T08:33:18.462Z,57.60
2023-04-06T08:36:14.861Z,56.60
2023-04-06T08:39:02.704Z,55.50
2023-04-06T08:41:49.980Z,55.10
2023-04-06T08:44:39.039Z,54.10
2023-04-06T08:47:26.474Z,52.90
2023-04-06T08:50:13.628Z,51.50
2023-04-06T08:55:49.745Z,46.90
2023-04-06T08:58:41.248Z,45.80
2023-04-06T09:01:31.582Z,44.20
2023-04-06T09:04:18.934Z,43.20
2023-04-06T09:07:06.499Z,39.10
2023-04-06T09:09:54.094Z,38.20
2023-04-06T09:12:41.687Z,36.40
2023-04-06T09:15:29.427Z,34.30
2023-04-06T09:18:31.335Z,32.90
2023-04-06T09:21:22.874Z,31.30
2023-04-06T09:24:12.627Z,30.90
2023-04-06T09:27:00.485Z,28.80
2023-04-06T09:29:48.507Z,28.40
2023-04-06T09:32:49.043Z,26.10
2023-04-06T09:35:38.085Z,27.90
2023-04-06T09:38:26.023Z,27.10
2023-04-06T09:41:13.481Z,26.40
2023-04-06T09:44:10.906Z,26.30
2023-04-06T09:47:01.603Z,25.60
2023-04-06T09:50:00.009Z,25.20
2023-04-06T09:52:54.873Z,25.80
2023-04-06T09:55:45.750Z,25.50
2023-04-06T09:58:39.954Z,24.30
2023-04-06T10:01:32.420Z,25.10
2023-04-06T10:04:31.584Z,25.10
2023-04-06T10:07:21.448Z,25.20
2023-04-06T10:10:12.757Z,26.70
2023-04-06T10:13:01.366Z,28.50
2023-04-06T10:15:54.943Z,27.90
2023-04-06T10:18:48.242Z,27.60
2023-04-06T10:21:39.579Z,27.00
2023-04-06T10:24:29.735Z,27.20
2023-04-06T10:27:31.325Z,28.60
2023-04-06T10:30:27.829Z,28.80
2023-04-06T10:33:16.429Z,31.00
2023-04-06T10:36:13.527Z,30.20
2023-04-06T10:39:03.648Z,30.40
2023-04-06T10:41:50.946Z,31.00
2023-04-06T10:44:47.357Z,32.10
2023-04-06T10:47:42.509Z,33.80
2023-04-06T10:50:32.921Z,34.00
2023-04-06T10:53:25.159Z,34.70
2023-04-06T10:56:17.562Z,36.00
2023-04-06T10:59:05.446Z,35.80
2023-04-06T11:01:57.273Z,35.40
2023-04-06T11:04:44.756Z,35.90
2023-04-06T11:07:32.702Z,36.50
2023-04-06T11:10:24.808Z,37.00
2023-04-06T11:13:12.261Z,37.60
2023-04-06T11:15:59.152Z,37.10
2023-04-06T11:18:53.118Z,37.40
2023-04-06T11:21:43.384Z,37.00
2023-04-06T11:24:30.472Z,37.60
2023-04-06T11:27:17.931Z,38.00
2023-04-06T11:30:08.525Z,37.70
2023-04-06T11:33:04.976Z,37.30
2023-04-06T11:35:53.477Z,38.00
2023-04-06T11:38:42.495Z,38.70
2023-04-06T11:41:31.195Z,38.60
2023-04-06T11:44:29.413Z,38.30
2023-04-06T11:47:16.857Z,37.90
2023-04-06T11:50:13.540Z,37.60
2023-04-06T11:53:04.233Z,38.00
2023-04-06T11:55:51.958Z,38.80
2023-04-06T11:58:40.185Z,38.00
2023-04-06T12:01:28.859Z,37.50
2023-04-06T12:04:19.145Z,37.90
2023-04-06T12:07:07.515Z,38.90
2023-04-06T12:09:56.890Z,38.60
2023-04-06T12:12:44.707Z,38.80
2023-04-06T12:15:32.320Z,38.80
2023-04-06T12:18:20.237Z,38.50
2023-04-06T12:21:07.988Z,38.80
2023-04-06T12:23:55.345Z,38.50
2023-04-06T12:26:47.071Z,38.10
2023-04-06T12:29:36.262Z,37.50
2023-04-06T12:32:24.218Z,37.30
2023-04-06T12:35:13.257Z,37.20
2023-04-06T12:38:01.016Z,36.70
2023-04-06T12:40:48.360Z,38.60
2023-04-06T12:43:39.337Z,39.10
2023-04-06T12:46:28.469Z,37.90
2023-04-06T12:49:21.464Z,37.90
2023-04-06T12:52:11.214Z,38.00
2023-04-06T12:55:02.678Z,37.20
2023-04-06T12:57:54.375Z,36.00
2023-04-06T13:00:46.093Z,36.50
2023-04-06T13:03:38.595Z,37.60
2023-04-06T13:06:30.123Z,37.90
2023-04-06T13:09:17.539Z,37.30
2023-04-06T13:12:04.636Z,36.90
2023-04-06T13:14:53.746Z,37.20
2023-04-06T13:17:43.121Z,37.00
2023-04-06T13:20:31.362Z,36.60
2023-04-06T13:23:18.831Z,36.50
2023-04-06T13:26:08.386Z,36.40
2023-04-06T13:28:57.314Z,36.10
2023-04-06T13:31:44.496Z,36.60
2023-04-06T13:34:33.312Z,37.90
2023-04-06T13:37:20.434Z,38.20
2023-04-06T13:40:08.941Z,38.40
2023-04-06T13:42:56.125Z,37.80
2023-04-06T13:45:43.216Z,36.80
2023-04-06T13:48:30.338Z,37.30
2023-04-06T13:51:18.918Z,37.70
2023-04-06T13:54:06.390Z,38.00
2023-04-06T13:56:54.244Z,36.60
2023-04-06T13:59:41.626Z,36.60
2023-04-06T14:02:28.843Z,36.00
2023-04-06T14:05:17.186Z,36.30
2023-04-06T14:08:05.627Z,36.40
2023-04-06T14:10:52.841Z,37.00
2023-04-06T14:13:40.257Z,37.40
2023-04-06T14:16:27.827Z,37.30
2023-04-06T14:19:18.742Z,37.00
2023-04-06T14:22:06.199Z,36.90
2023-04-06T14:24:54.602Z,36.50
2023-04-06T14:27:41.689Z,35.80
2023-04-06T14:30:29.305Z,36.00
2023-04-06T14:33:16.776Z,36.60
2023-04-06T14:36:05.301Z,36.60
2023-04-06T14:38:53.515Z,37.10
2023-04-06T14:41:43.149Z,37.30
2023-04-06T14:44:30.619Z,37.50
2023-04-06T14:47:21.632Z,37.80
2023-04-06T14:50:09.604Z,38.00
2023-04-06T14:52:57.283Z,38.90
2023-04-06T14:55:45.283Z,54.40
2023-04-06T14:58:33.492Z,48.90
2023-04-06T15:01:22.095Z,39.00
2023-04-06T15:04:10.098Z,44.70
2023-04-06T15:06:58.600Z,44.20
2023-04-06T15:09:46.059Z,39.60
2023-04-06T15:12:34.085Z,44.10
2023-04-06T15:15:23.463Z,44.40
2023-04-06T15:18:11.586Z,44.00
2023-04-06T15:20:58.970Z,43.10
2023-04-06T15:23:46.746Z,43.40
2023-04-06T15:26:35.036Z,42.80
2023-04-06T15:29:22.409Z,42.30
2023-04-06T15:32:11.946Z,42.00
2023-04-06T15:35:01.145Z,42.20
2023-04-06T15:37:49.269Z,42.80
2023-04-06T15:40:44.558Z,44.10
2023-04-06T15:43:32.280Z,44.40
2023-04-06T15:46:20.504Z,45.00
2023-04-06T15:49:09.512Z,44.40
2023-04-06T15:51:56.977Z,43.80
2023-04-06T15:54:44.881Z,44.10
2023-04-06T15:57:32.698Z,44.60
2023-04-06T16:00:21.088Z,45.50
2023-04-06T16:03:09.434Z,48.10
2023-04-06T16:06:08.130Z,43.10
2023-04-06T16:08:56.456Z,37.70
2023-04-06T16:11:43.672Z,37.90
2023-04-06T16:14:31.344Z,38.60
2023-04-06T16:17:18.961Z,38.60
2023-04-06T16:20:07.884Z,38.70
2023-04-06T16:22:58.688Z,39.30
2023-04-06T16:25:46.167Z,38.70
2023-04-06T16:28:34.481Z,39.90
2023-04-06T16:31:23.562Z,39.90
2023-04-06T16:34:11.627Z,40.00
2023-04-06T16:36:59.607Z,41.10
2023-04-06T16:39:48.738Z,40.30
2023-04-06T16:42:36.406Z,39.90
2023-04-06T16:45:24.171Z,39.80
2023-04-06T16:48:12.129Z,39.60
2023-04-06T16:51:06.331Z,40.30
2023-04-06T16:53:54.513Z,40.40
2023-04-06T16:56:43.862Z,40.70
2023-04-06T16:59:31.958Z,40.60
2023-04-06T17:02:19.256Z,40.70
2023-04-06T17:05:06.860Z,40.70
2023-04-06T17:07:54.536Z,40.60
2023-04-06T17:13:36.372Z,41.80
2023-04-06T17:16:23.789Z,42.00
2023-04-06T17:19:11.310Z,41.90
2023-04-06T17:21:58.237Z,41.10
2023-04-06T17:24:45.405Z,41.80
2023-04-06T17:27:32.880Z,42.50
2023-04-06T17:30:21.283Z,42.50
2023-04-06T17:33:08.443Z,42.80
2023-04-06T17:35:56.488Z,42.90
2023-04-06T17:38:46.092Z,43.90
2023-04-06T17:41:34.817Z,44.10
2023-04-06T17:44:22.261Z,44.00
2023-04-06T17:47:11.037Z,46.30
2023-04-06T17:49:57.835Z,44.40
2023-04-06T17:55:32.280Z,45.30
2023-04-06T17:58:19.223Z,45.20
2023-04-06T18:01:08.631Z,45.60
2023-04-06T18:03:57.153Z,45.70
2023-04-06T18:06:44.112Z,45.80
2023-04-06T18:09:32.820Z,46.10
2023-04-06T18:12:19.824Z,46.10
2023-04-06T18:17:54.710Z,46.30
2023-04-06T18:20:43.123Z,47.30
2023-04-06T18:23:30.442Z,47.90
2023-04-06T18:26:18.766Z,48.90
2023-04-06T18:29:06.353Z,48.90
2023-04-06T18:31:55.318Z,49.10
2023-04-06T18:34:42.664Z,49.20
2023-04-06T18:37:31.577Z,50.00
2023-04-06T18:40:34.773Z,50.40
2023-04-06T18:43:22.103Z,51.10
2023-04-06T18:46:13.878Z,51.10
2023-04-06T18:49:01.693Z,51.50
2023-04-06T18:51:49.388Z,51.50
2023-04-06T18:54:38.670Z,52.00
2023-04-06T18:57:26.358Z,52.60
2023-04-06T19:00:14.956Z,53.10
2023-04-06T19:03:02.954Z,53.00
2023-04-06T19:05:50.695Z,53.30
2023-04-06T19:08:41.424Z,53.60
2023-04-06T19:11:30.064Z,54.10
2023-04-06T19:14:17.787Z,54.10
2023-04-06T19:17:06.558Z,54.50
2023-04-06T19:19:55.597Z,55.00
2023-04-06T19:22:44.979Z,55.20
2023-04-06T19:25:32.450Z,55.60
2023-04-06T19:28:21.373Z,56.00
2023-04-06T19:31:09.912Z,56.30
2023-04-06T19:33:57.491Z,56.60
2023-04-06T19:36:45.345Z,56.80
2023-04-06T19:39:33.392Z,57.00
2023-04-06T19:42:21.915Z,57.50
2023-04-06T19:45:10.379Z,57.80
2023-04-06T19:47:57.424Z,58.10
2023-04-06T19:50:44.707Z,58.50
2023-04-06T19:53:32.077Z,58.60
2023-04-06T19:56:19.059Z,58.80
2023-04-06T19:59:06.038Z,59.10
2023-04-06T20:01:54.444Z,59.50
2023-04-06T20:04:42.634Z,60.00
2023-04-06T20:07:30.312Z,60.30
2023-04-06T20:10:18.500Z,59.30
2023-04-06T20:13:06.210Z,61.00
2023-04-06T20:15:53.374Z,61.00
2023-04-06T20:18:41.488Z,61.20
2023-04-06T20:21:28.716Z,61.00
2023-04-06T20:24:16.156Z,61.20
2023-04-06T20:27:03.829Z,62.20
2023-04-06T20:29:50.551Z,62.20
2023-04-06T20:32:38.530Z,62.70
2023-04-06T20:35:27.497Z,63.10
2023-04-06T20:38:15.855Z,63.70
2023-04-06T20:49:27.464Z,63.10
2023-04-06T20:52:16.321Z,64.40
2023-04-06T20:55:03.350Z,64.70
2023-04-06T20:57:50.292Z,64.60
2023-04-06T21:00:37.804Z,64.90
2023-04-06T21:03:25.707Z,65.00
2023-04-06T21:06:13.144Z,65.30
2023-04-06T21:09:03.556Z,65.40
2023-04-06T21:11:50.844Z,65.60
2023-04-06T21:14:38.405Z,65.60
2023-04-06T21:17:25.836Z,65.40
2023-04-06T21:20:12.772Z,65.50
2023-04-06T21:23:00.284Z,65.80
2023-04-06T21:25:50.370Z,66.30
2023-04-06T21:28:37.796Z,65.60
2023-04-06T21:31:25.186Z,66.00
2023-04-06T21:34:13.444Z,65.60
2023-04-06T21:37:00.716Z,66.10
2023-04-06T21:39:47.575Z,66.70
2023-04-06T21:42:36.067Z,65.20
2023-04-06T21:45:22.945Z,65.40
2023-04-06T21:48:09.909Z,65.00
2023-04-06T21:50:56.960Z,65.50
2023-04-06T21:53:44.201Z,65.40
2023-04-06T21:56:30.955Z,65.00
2023-04-06T21:59:20.681Z,64.80
2023-04-06T22:02:07.782Z,64.60
2023-04-06T22:04:55.140Z,64.40
2023-04-06T22:07:42.401Z,64.20
2023-04-06T22:10:29.633Z,63.90
2023-04-06T22:13:16.805Z,64.10
2023-04-06T22:16:05.425Z,64.00
2023-04-06T22:18:52.514Z,64.80
2023-04-06T22:21:39.984Z,64.80
2023-04-06T22:24:28.168Z,65.50
2023-04-06T22:27:15.074Z,66.00
2023-04-06T22:30:02.065Z,65.40
2023-04-06T22:32:50.577Z,65.00
2023-04-06T22:35:37.712Z,64.80
2023-04-06T22:38:24.880Z,65.70
2023-04-06T22:41:12.398Z,65.80
2023-04-06T22:43:59.748Z,65.70
2023-04-06T22:46:46.613Z,65.50
2023-04-06T22:49:35.171Z,65.20
2023-04-06T22:52:22.366Z,65.70
2023-04-06T22:55:09.789Z,65.40
2023-04-06T22:57:56.993Z,65.40
2023-04-06T23:00:44.589Z,65.40
2023-04-06T23:03:31.797Z,65.00
2023-04-06T23:06:20.838Z,65.50
2023-04-06T23:09:07.994Z,65.30
2023-04-06T23:11:54.937Z,65.10
2023-04-06T23:14:41.810Z,64.90
2023-04-06T23:17:28.903Z,64.90
2023-04-06T23:20:16.345Z,64.80
2023-04-06T23:23:04.730Z,64.60
2023-04-06T23:25:51.580Z,64.40
2023-04-06T23:28:38.933Z,64.20
2023-04-06T23:31:25.851Z,64.20
2023-04-06T23:34:13.165Z,64.20
2023-04-06T23:37:03.179Z,64.20
2023-04-06T23:39:51.848Z,64.20
2023-04-06T23:42:38.936Z,64.30
2023-04-06T23:45:25.893Z,64.40
2023-04-06T23:48:12.841Z,64.50
2023-04-06T23:51:00.240Z,64.60
2023-04-06T23:53:47.357Z,64.50
2023-04-06T23:56:35.808Z,64.70
2023-04-06T23:59:23.935Z,64.70
